sensor_id;sensor_type;location;lat;lon;timestamp;temperature;humidity
35445;DHT22;21562;49.476;6.086;2023-06-14T00:00:13;22.10;57.60
35445;DHT22;21562;49.476;6.086;2023-06-14T00:02:40;22.00;57.70
35445;DHT22;21562;49.476;6.086;2023-06-14T00:05:07;21.90;57.90
35445;DHT22;21562;49.476;6.086;2023-06-14T00:07:37;21.80;58.00
35445;DHT22;21562;49.476;6.086;2023-06-14T00:10:14;21.80;58.20
35445;DHT22;21562;49.476;6.086;2023-06-14T00:12:40;21.50;58.60
35445;DHT22;21562;49.476;6.086;2023-06-14T00:15:08;21.40;58.60
35445;DHT22;21562;49.476;6.086;2023-06-14T00:17:35;21.40;58.70
35445;DHT22;21562;49.476;6.086;2023-06-14T00:20:03;21.40;58.70
35445;DHT22;21562;49.476;6.086;2023-06-14T00:22:30;21.50;58.60
35445;DHT22;21562;49.476;6.086;2023-06-14T00:24:57;21.50;58.60
35445;DHT22;21562;49.476;6.086;2023-06-14T00:27:22;21.60;58.40
35445;DHT22;21562;49.476;6.086;2023-06-14T00:29:48;21.60;58.50
35445;DHT22;21562;49.476;6.086;2023-06-14T00:32:14;21.50;58.60
35445;DHT22;21562;49.476;6.086;2023-06-14T00:34:39;21.60;58.70
35445;DHT22;21562;49.476;6.086;2023-06-14T00:37:05;21.60;58.60
35445;DHT22;21562;49.476;6.086;2023-06-14T00:39:30;21.30;59.00
35445;DHT22;21562;49.476;6.086;2023-06-14T00:41:56;21.30;59.10
35445;DHT22;21562;49.476;6.086;2023-06-14T00:44:23;21.30;59.10
35445;DHT22;21562;49.476;6.086;2023-06-14T00:46:49;21.40;59.00
35445;DHT22;21562;49.476;6.086;2023-06-14T00:49:16;21.40;59.00
35445;DHT22;21562;49.476;6.086;2023-06-14T00:51:42;21.40;59.20
35445;DHT22;21562;49.476;6.086;2023-06-14T00:54:08;21.50;59.10
35445;DHT22;21562;49.476;6.086;2023-06-14T00:56:36;21.60;59.10
35445;DHT22;21562;49.476;6.086;2023-06-14T00:59:03;21.30;59.20
35445;DHT22;21562;49.476;6.086;2023-06-14T01:01:30;21.30;59.30
35445;DHT22;21562;49.476;6.086;2023-06-14T01:03:58;21.30;59.30
35445;DHT22;21562;49.476;6.086;2023-06-14T01:09:18;21.30;59.30
35445;DHT22;21562;49.476;6.086;2023-06-14T01:14:18;20.90;60.10
35445;DHT22;21562;49.476;6.086;2023-06-14T01:16:45;20.90;60.50
35445;DHT22;21562;49.476;6.086;2023-06-14T01:19:12;21.00;60.20
35445;DHT22;21562;49.476;6.086;2023-06-14T01:21:39;21.10;60.00
35445;DHT22;21562;49.476;6.086;2023-06-14T01:24:08;21.10;60.00
35445;DHT22;21562;49.476;6.086;2023-06-14T01:26:35;21.00;60.10
35445;DHT22;21562;49.476;6.086;2023-06-14T01:29:03;20.90;60.80
35445;DHT22;21562;49.476;6.086;2023-06-14T01:31:29;20.90;60.60
35445;DHT22;21562;49.476;6.086;2023-06-14T01:34:05;21.00;60.30
35445;DHT22;21562;49.476;6.086;2023-06-14T01:36:31;21.00;60.60
35445;DHT22;21562;49.476;6.086;2023-06-14T01:38:59;21.00;60.50
35445;DHT22;21562;49.476;6.086;2023-06-14T01:41:25;21.00;60.30
35445;DHT22;21562;49.476;6.086;2023-06-14T01:43:52;21.00;60.40
35445;DHT22;21562;49.476;6.086;2023-06-14T01:46:19;21.10;60.50
35445;DHT22;21562;49.476;6.086;2023-06-14T01:48:45;21.10;60.40
35445;DHT22;21562;49.476;6.086;2023-06-14T01:51:11;21.20;60.20
35445;DHT22;21562;49.476;6.086;2023-06-14T01:53:36;21.10;60.80
35445;DHT22;21562;49.476;6.086;2023-06-14T01:56:02;21.10;60.80
35445;DHT22;21562;49.476;6.086;2023-06-14T01:58:29;21.10;60.60
35445;DHT22;21562;49.476;6.086;2023-06-14T02:00:54;21.10;60.40
35445;DHT22;21562;49.476;6.086;2023-06-14T02:03:23;21.10;60.70
35445;DHT22;21562;49.476;6.086;2023-06-14T02:05:49;21.00;60.80
35445;DHT22;21562;49.476;6.086;2023-06-14T02:08:15;21.00;61.00
35445;DHT22;21562;49.476;6.086;2023-06-14T02:10:41;21.00;60.90
35445;DHT22;21562;49.476;6.086;2023-06-14T02:13:06;21.00;60.80
35445;DHT22;21562;49.476;6.086;2023-06-14T02:15:32;21.00;61.00
35445;DHT22;21562;49.476;6.086;2023-06-14T02:18:04;21.00;61.50
35445;DHT22;21562;49.476;6.086;2023-06-14T02:20:30;20.60;61.80
35445;DHT22;21562;49.476;6.086;2023-06-14T02:22:56;20.30;63.00
35445;DHT22;21562;49.476;6.086;2023-06-14T02:25:22;20.40;63.30
35445;DHT22;21562;49.476;6.086;2023-06-14T02:27:48;20.40;63.20
35445;DHT22;21562;49.476;6.086;2023-06-14T02:30:13;20.50;63.10
35445;DHT22;21562;49.476;6.086;2023-06-14T02:32:40;20.30;63.30
35445;DHT22;21562;49.476;6.086;2023-06-14T02:35:08;19.60;65.50
35445;DHT22;21562;49.476;6.086;2023-06-14T02:37:34;19.50;66.60
35445;DHT22;21562;49.476;6.086;2023-06-14T02:40:00;19.40;66.90
35445;DHT22;21562;49.476;6.086;2023-06-14T02:42:26;19.60;66.50
35445;DHT22;21562;49.476;6.086;2023-06-14T02:44:51;19.70;66.30
35445;DHT22;21562;49.476;6.086;2023-06-14T02:47:20;19.60;66.70
35445;DHT22;21562;49.476;6.086;2023-06-14T02:49:45;19.20;67.20
35445;DHT22;21562;49.476;6.086;2023-06-14T02:52:14;19.20;68.10
35445;DHT22;21562;49.476;6.086;2023-06-14T02:54:40;19.10;68.80
35445;DHT22;21562;49.476;6.086;2023-06-14T02:57:07;19.30;68.50
35445;DHT22;21562;49.476;6.086;2023-06-14T02:59:33;19.50;67.90
35445;DHT22;21562;49.476;6.086;2023-06-14T03:01:59;19.10;68.10
35445;DHT22;21562;49.476;6.086;2023-06-14T03:04:25;19.00;68.50
35445;DHT22;21562;49.476;6.086;2023-06-14T03:06:54;19.00;68.70
35445;DHT22;21562;49.476;6.086;2023-06-14T03:09:20;18.90;70.00
35445;DHT22;21562;49.476;6.086;2023-06-14T03:11:46;18.90;70.30
35445;DHT22;21562;49.476;6.086;2023-06-14T03:14:12;19.10;70.00
35445;DHT22;21562;49.476;6.086;2023-06-14T03:16:38;19.20;70.00
35445;DHT22;21562;49.476;6.086;2023-06-14T03:19:04;18.90;70.80
35445;DHT22;21562;49.476;6.086;2023-06-14T03:21:30;18.90;70.90
35445;DHT22;21562;49.476;6.086;2023-06-14T03:23:55;19.00;70.30
35445;DHT22;21562;49.476;6.086;2023-06-14T03:26:21;19.10;70.20
35445;DHT22;21562;49.476;6.086;2023-06-14T03:28:47;19.30;70.00
35445;DHT22;21562;49.476;6.086;2023-06-14T03:31:16;19.20;70.10
35445;DHT22;21562;49.476;6.086;2023-06-14T03:33:41;19.30;69.90
35445;DHT22;21562;49.476;6.086;2023-06-14T03:36:07;19.40;69.70
35445;DHT22;21562;49.476;6.086;2023-06-14T03:38:33;19.50;69.60
35445;DHT22;21562;49.476;6.086;2023-06-14T03:40:59;19.60;69.00
35445;DHT22;21562;49.476;6.086;2023-06-14T03:43:25;19.60;68.90
35445;DHT22;21562;49.476;6.086;2023-06-14T03:45:51;19.70;68.80
35445;DHT22;21562;49.476;6.086;2023-06-14T03:48:16;19.40;69.20
35445;DHT22;21562;49.476;6.086;2023-06-14T03:50:42;19.30;69.40
35445;DHT22;21562;49.476;6.086;2023-06-14T03:53:08;19.40;70.30
35445;DHT22;21562;49.476;6.086;2023-06-14T03:55:34;19.40;69.60
35445;DHT22;21562;49.476;6.086;2023-06-14T03:58:00;19.30;70.00
35445;DHT22;21562;49.476;6.086;2023-06-14T04:00:26;19.30;69.90
35445;DHT22;21562;49.476;6.086;2023-06-14T04:02:52;19.20;70.50
35445;DHT22;21562;49.476;6.086;2023-06-14T04:05:19;19.10;70.70
35445;DHT22;21562;49.476;6.086;2023-06-14T04:07:45;19.30;70.50
35445;DHT22;21562;49.476;6.086;2023-06-14T04:10:15;19.30;70.40
35445;DHT22;21562;49.476;6.086;2023-06-14T04:12:41;19.50;70.10
35445;DHT22;21562;49.476;6.086;2023-06-14T04:15:08;19.30;73.60
35445;DHT22;21562;49.476;6.086;2023-06-14T04:17:34;19.20;72.50
35445;DHT22;21562;49.476;6.086;2023-06-14T04:20:02;19.30;72.00
35445;DHT22;21562;49.476;6.086;2023-06-14T04:22:30;19.20;73.20
35445;DHT22;21562;49.476;6.086;2023-06-14T04:24:56;19.30;72.30
35445;DHT22;21562;49.476;6.086;2023-06-14T04:27:23;19.50;71.70
35445;DHT22;21562;49.476;6.086;2023-06-14T04:29:51;19.50;71.90
35445;DHT22;21562;49.476;6.086;2023-06-14T04:32:28;19.70;71.60
35445;DHT22;21562;49.476;6.086;2023-06-14T04:34:55;19.70;71.80
35445;DHT22;21562;49.476;6.086;2023-06-14T04:37:21;19.70;72.10
35445;DHT22;21562;49.476;6.086;2023-06-14T04:39:48;19.70;72.30
35445;DHT22;21562;49.476;6.086;2023-06-14T04:42:13;19.80;72.50
35445;DHT22;21562;49.476;6.086;2023-06-14T04:44:41;19.80;72.40
35445;DHT22;21562;49.476;6.086;2023-06-14T04:47:07;19.80;72.60
35445;DHT22;21562;49.476;6.086;2023-06-14T04:49:33;19.90;72.30
35445;DHT22;21562;49.476;6.086;2023-06-14T04:52:00;20.40;90.20
35445;DHT22;21562;49.476;6.086;2023-06-14T04:54:27;21.40;90.10
35445;DHT22;21562;49.476;6.086;2023-06-14T04:56:53;22.10;87.20
35445;DHT22;21562;49.476;6.086;2023-06-14T04:59:20;22.90;82.10
35445;DHT22;21562;49.476;6.086;2023-06-14T05:01:48;23.50;78.80
35445;DHT22;21562;49.476;6.086;2023-06-14T05:04:18;23.90;75.60
35445;DHT22;21562;49.476;6.086;2023-06-14T05:06:45;24.20;73.70
35445;DHT22;21562;49.476;6.086;2023-06-14T05:09:14;24.40;73.40
35445;DHT22;21562;49.476;6.086;2023-06-14T05:11:40;24.60;73.60
35445;DHT22;21562;49.476;6.086;2023-06-14T05:14:07;24.90;71.20
35445;DHT22;21562;49.476;6.086;2023-06-14T05:16:33;25.10;69.10
35445;DHT22;21562;49.476;6.086;2023-06-14T05:18:59;25.20;69.60
35445;DHT22;21562;49.476;6.086;2023-06-14T05:21:24;25.30;68.40
35445;DHT22;21562;49.476;6.086;2023-06-14T05:23:50;25.50;67.50
35445;DHT22;21562;49.476;6.086;2023-06-14T05:26:16;25.50;66.80
35445;DHT22;21562;49.476;6.086;2023-06-14T05:28:42;25.50;67.80
35445;DHT22;21562;49.476;6.086;2023-06-14T05:31:08;25.60;67.00
35445;DHT22;21562;49.476;6.086;2023-06-14T05:33:33;25.60;65.50
35445;DHT22;21562;49.476;6.086;2023-06-14T05:35:59;25.70;65.60
35445;DHT22;21562;49.476;6.086;2023-06-14T05:38:24;25.60;65.10
35445;DHT22;21562;49.476;6.086;2023-06-14T05:40:51;25.40;66.20
35445;DHT22;21562;49.476;6.086;2023-06-14T05:43:16;25.40;65.20
35445;DHT22;21562;49.476;6.086;2023-06-14T05:45:45;25.40;64.30
35445;DHT22;21562;49.476;6.086;2023-06-14T05:48:19;25.40;62.40
35445;DHT22;21562;49.476;6.086;2023-06-14T05:50:45;25.40;58.60
35445;DHT22;21562;49.476;6.086;2023-06-14T05:53:37;25.00;58.80
35445;DHT22;21562;49.476;6.086;2023-06-14T05:56:07;24.70;58.70
35445;DHT22;21562;49.476;6.086;2023-06-14T05:59:03;24.20;59.50
35445;DHT22;21562;49.476;6.086;2023-06-14T06:01:49;23.70;59.60
35445;DHT22;21562;49.476;6.086;2023-06-14T06:04:15;23.40;61.60
35445;DHT22;21562;49.476;6.086;2023-06-14T06:06:40;23.30;61.40
35445;DHT22;21562;49.476;6.086;2023-06-14T06:09:06;22.90;65.70
35445;DHT22;21562;49.476;6.086;2023-06-14T06:11:32;23.00;67.70
35445;DHT22;21562;49.476;6.086;2023-06-14T06:13:57;23.00;65.30
35445;DHT22;21562;49.476;6.086;2023-06-14T06:16:23;22.80;67.00
35445;DHT22;21562;49.476;6.086;2023-06-14T06:18:49;22.90;67.50
35445;DHT22;21562;49.476;6.086;2023-06-14T06:21:14;23.00;68.80
35445;DHT22;21562;49.476;6.086;2023-06-14T06:23:41;23.30;66.80
35445;DHT22;21562;49.476;6.086;2023-06-14T06:26:06;23.40;65.20
35445;DHT22;21562;49.476;6.086;2023-06-14T06:28:32;23.40;68.60
35445;DHT22;21562;49.476;6.086;2023-06-14T06:30:58;23.20;70.10
35445;DHT22;21562;49.476;6.086;2023-06-14T06:33:23;23.80;66.10
35445;DHT22;21562;49.476;6.086;2023-06-14T06:35:49;24.10;67.90
35445;DHT22;21562;49.476;6.086;2023-06-14T06:38:15;24.10;63.80
35445;DHT22;21562;49.476;6.086;2023-06-14T06:40:40;24.10;66.90
35445;DHT22;21562;49.476;6.086;2023-06-14T06:43:06;24.30;67.10
35445;DHT22;21562;49.476;6.086;2023-06-14T06:45:31;24.50;66.30
35445;DHT22;21562;49.476;6.086;2023-06-14T06:47:58;24.80;65.40
35445;DHT22;21562;49.476;6.086;2023-06-14T06:50:24;25.00;65.70
35445;DHT22;21562;49.476;6.086;2023-06-14T06:52:50;25.30;65.40
35445;DHT22;21562;49.476;6.086;2023-06-14T06:55:16;25.40;65.10
35445;DHT22;21562;49.476;6.086;2023-06-14T06:57:42;25.40;64.20
35445;DHT22;21562;49.476;6.086;2023-06-14T07:00:08;25.40;63.20
35445;DHT22;21562;49.476;6.086;2023-06-14T07:02:35;25.20;63.00
35445;DHT22;21562;49.476;6.086;2023-06-14T07:05:00;25.00;61.70
35445;DHT22;21562;49.476;6.086;2023-06-14T07:23:58;23.20;65.20
35445;DHT22;21562;49.476;6.086;2023-06-14T07:26:24;23.40;66.70
35445;DHT22;21562;49.476;6.086;2023-06-14T07:28:50;23.20;64.30
35445;DHT22;21562;49.476;6.086;2023-06-14T07:31:16;23.10;67.10
35445;DHT22;21562;49.476;6.086;2023-06-14T07:33:42;23.20;66.40
35445;DHT22;21562;49.476;6.086;2023-06-14T07:36:08;23.40;67.20
35445;DHT22;21562;49.476;6.086;2023-06-14T07:38:34;23.70;65.80
35445;DHT22;21562;49.476;6.086;2023-06-14T07:41:00;24.00;65.90
35445;DHT22;21562;49.476;6.086;2023-06-14T07:43:26;24.00;66.30
35445;DHT22;21562;49.476;6.086;2023-06-14T07:45:51;24.10;66.00
35445;DHT22;21562;49.476;6.086;2023-06-14T07:48:17;23.90;63.30
35445;DHT22;21562;49.476;6.086;2023-06-14T07:50:43;23.80;66.10
35445;DHT22;21562;49.476;6.086;2023-06-14T07:53:08;24.00;65.30
35445;DHT22;21562;49.476;6.086;2023-06-14T07:55:34;24.20;65.30
35445;DHT22;21562;49.476;6.086;2023-06-14T07:58:02;24.30;63.80
35445;DHT22;21562;49.476;6.086;2023-06-14T08:00:28;24.30;63.40
35445;DHT22;21562;49.476;6.086;2023-06-14T08:02:54;24.10;64.40
35445;DHT22;21562;49.476;6.086;2023-06-14T08:05:24;24.40;65.90
35445;DHT22;21562;49.476;6.086;2023-06-14T08:07:50;24.70;65.20
35445;DHT22;21562;49.476;6.086;2023-06-14T08:10:16;24.90;62.70
35445;DHT22;21562;49.476;6.086;2023-06-14T08:12:41;24.90;61.20
35445;DHT22;21562;49.476;6.086;2023-06-14T08:15:08;24.80;63.70
35445;DHT22;21562;49.476;6.086;2023-06-14T08:17:34;25.10;63.20
35445;DHT22;21562;49.476;6.086;2023-06-14T08:20:00;25.30;62.70
35445;DHT22;21562;49.476;6.086;2023-06-14T08:22:25;25.40;63.90
35445;DHT22;21562;49.476;6.086;2023-06-14T08:24:53;25.60;61.60
35445;DHT22;21562;49.476;6.086;2023-06-14T08:27:20;25.60;60.60
35445;DHT22;21562;49.476;6.086;2023-06-14T08:29:45;25.70;61.80
35445;DHT22;21562;49.476;6.086;2023-06-14T08:32:12;25.80;63.10
35445;DHT22;21562;49.476;6.086;2023-06-14T08:34:38;26.00;62.00
35445;DHT22;21562;49.476;6.086;2023-06-14T08:37:03;26.10;62.30
35445;DHT22;21562;49.476;6.086;2023-06-14T08:39:30;26.00;60.10
35445;DHT22;21562;49.476;6.086;2023-06-14T08:41:56;25.80;61.00
35445;DHT22;21562;49.476;6.086;2023-06-14T08:44:22;25.50;60.90
35445;DHT22;21562;49.476;6.086;2023-06-14T08:46:48;25.30;59.60
35445;DHT22;21562;49.476;6.086;2023-06-14T08:49:16;25.40;62.30
35445;DHT22;21562;49.476;6.086;2023-06-14T08:51:43;25.30;59.60
35445;DHT22;21562;49.476;6.086;2023-06-14T08:54:11;25.60;63.10
35445;DHT22;21562;49.476;6.086;2023-06-14T08:56:38;25.80;62.40
35445;DHT22;21562;49.476;6.086;2023-06-14T08:59:04;26.00;59.70
35445;DHT22;21562;49.476;6.086;2023-06-14T09:01:35;26.20;62.90
35445;DHT22;21562;49.476;6.086;2023-06-14T09:04:02;26.40;63.10
35445;DHT22;21562;49.476;6.086;2023-06-14T09:06:28;26.80;62.50
35445;DHT22;21562;49.476;6.086;2023-06-14T09:08:55;27.20;61.80
35445;DHT22;21562;49.476;6.086;2023-06-14T09:11:24;27.00;59.40
35445;DHT22;21562;49.476;6.086;2023-06-14T09:13:52;26.90;59.70
35445;DHT22;21562;49.476;6.086;2023-06-14T09:16:18;27.10;60.40
35445;DHT22;21562;49.476;6.086;2023-06-14T09:18:46;26.70;58.20
35445;DHT22;21562;49.476;6.086;2023-06-14T09:21:16;26.70;59.20
35445;DHT22;21562;49.476;6.086;2023-06-14T09:23:47;26.90;60.50
35445;DHT22;21562;49.476;6.086;2023-06-14T09:28:45;26.40;58.20
35445;DHT22;21562;49.476;6.086;2023-06-14T09:31:12;26.60;57.70
35445;DHT22;21562;49.476;6.086;2023-06-14T09:33:38;26.80;57.20
35445;DHT22;21562;49.476;6.086;2023-06-14T09:36:09;26.80;58.90
35445;DHT22;21562;49.476;6.086;2023-06-14T09:38:35;26.90;56.20
35445;DHT22;21562;49.476;6.086;2023-06-14T09:41:03;26.90;55.50
35445;DHT22;21562;49.476;6.086;2023-06-14T09:43:29;26.70;55.70
35445;DHT22;21562;49.476;6.086;2023-06-14T09:45:55;26.50;56.10
35445;DHT22;21562;49.476;6.086;2023-06-14T09:48:21;26.60;55.00
35445;DHT22;21562;49.476;6.086;2023-06-14T09:50:47;26.60;54.80
35445;DHT22;21562;49.476;6.086;2023-06-14T09:53:15;26.80;55.80
35445;DHT22;21562;49.476;6.086;2023-06-14T09:55:42;27.00;55.10
35445;DHT22;21562;49.476;6.086;2023-06-14T09:58:10;27.30;54.20
35445;DHT22;21562;49.476;6.086;2023-06-14T10:00:36;27.20;53.60
35445;DHT22;21562;49.476;6.086;2023-06-14T10:03:13;27.20;53.10
35445;DHT22;21562;49.476;6.086;2023-06-14T10:05:44;27.10;53.80
35445;DHT22;21562;49.476;6.086;2023-06-14T10:08:14;27.20;52.90
35445;DHT22;21562;49.476;6.086;2023-06-14T10:10:43;27.20;53.80
35445;DHT22;21562;49.476;6.086;2023-06-14T10:13:09;27.20;53.10
35445;DHT22;21562;49.476;6.086;2023-06-14T10:15:57;27.40;54.30
35445;DHT22;21562;49.476;6.086;2023-06-14T10:22:09;27.30;53.40
35445;DHT22;21562;49.476;6.086;2023-06-14T10:24:30;27.70;54.30
35445;DHT22;21562;49.476;6.086;2023-06-14T10:26:58;27.80;54.30
35445;DHT22;21562;49.476;6.086;2023-06-14T10:29:28;28.10;53.40
35445;DHT22;21562;49.476;6.086;2023-06-14T10:31:58;27.90;55.10
35445;DHT22;21562;49.476;6.086;2023-06-14T10:34:25;28.20;54.00
35445;DHT22;21562;49.476;6.086;2023-06-14T10:37:05;28.10;52.60
35445;DHT22;21562;49.476;6.086;2023-06-14T10:39:37;27.80;53.20
35445;DHT22;21562;49.476;6.086;2023-06-14T10:42:03;27.30;53.00
35445;DHT22;21562;49.476;6.086;2023-06-14T10:44:31;26.60;54.10
35445;DHT22;21562;49.476;6.086;2023-06-14T10:47:00;27.20;53.60
35445;DHT22;21562;49.476;6.086;2023-06-14T10:49:48;27.60;53.30
35445;DHT22;21562;49.476;6.086;2023-06-14T10:52:17;27.20;52.60
35445;DHT22;21562;49.476;6.086;2023-06-14T10:57:25;27.40;55.80
35445;DHT22;21562;49.476;6.086;2023-06-14T10:59:50;27.90;53.20
35445;DHT22;21562;49.476;6.086;2023-06-14T11:04:50;27.70;51.50
35445;DHT22;21562;49.476;6.086;2023-06-14T11:07:43;27.20;53.50
35445;DHT22;21562;49.476;6.086;2023-06-14T11:10:33;27.30;53.10
35445;DHT22;21562;49.476;6.086;2023-06-14T11:13:02;27.40;53.60
35445;DHT22;21562;49.476;6.086;2023-06-14T11:15:31;27.60;52.80
35445;DHT22;21562;49.476;6.086;2023-06-14T11:18:00;27.90;51.70
35445;DHT22;21562;49.476;6.086;2023-06-14T11:20:27;27.90;52.20
35445;DHT22;21562;49.476;6.086;2023-06-14T11:22:53;28.20;52.40
35445;DHT22;21562;49.476;6.086;2023-06-14T11:25:19;28.20;51.90
35445;DHT22;21562;49.476;6.086;2023-06-14T11:27:45;28.30;52.80
35445;DHT22;21562;49.476;6.086;2023-06-14T11:30:12;28.60;53.20
35445;DHT22;21562;49.476;6.086;2023-06-14T11:32:38;28.70;51.50
35445;DHT22;21562;49.476;6.086;2023-06-14T11:35:05;28.40;51.80
35445;DHT22;21562;49.476;6.086;2023-06-14T11:37:31;28.20;52.10
35445;DHT22;21562;49.476;6.086;2023-06-14T11:40:01;27.90;52.60
35445;DHT22;21562;49.476;6.086;2023-06-14T11:42:27;28.30;52.60
35445;DHT22;21562;49.476;6.086;2023-06-14T11:44:56;28.60;52.60
35445;DHT22;21562;49.476;6.086;2023-06-14T11:47:22;28.90;52.10
35445;DHT22;21562;49.476;6.086;2023-06-14T11:49:48;28.90;51.70
35445;DHT22;21562;49.476;6.086;2023-06-14T11:52:15;28.30;51.90
35445;DHT22;21562;49.476;6.086;2023-06-14T11:54:42;28.20;51.90
35445;DHT22;21562;49.476;6.086;2023-06-14T11:57:08;28.40;51.90
35445;DHT22;21562;49.476;6.086;2023-06-14T11:59:40;28.20;50.70
35445;DHT22;21562;49.476;6.086;2023-06-14T12:02:07;28.20;51.70
35445;DHT22;21562;49.476;6.086;2023-06-14T12:04:33;28.20;52.30
35445;DHT22;21562;49.476;6.086;2023-06-14T12:07:14;28.60;52.40
35445;DHT22;21562;49.476;6.086;2023-06-14T12:10:10;28.90;51.60
35445;DHT22;21562;49.476;6.086;2023-06-14T12:12:40;28.10;51.50
35445;DHT22;21562;49.476;6.086;2023-06-14T12:15:07;28.10;51.30
35445;DHT22;21562;49.476;6.086;2023-06-14T12:17:36;28.30;51.50
35445;DHT22;21562;49.476;6.086;2023-06-14T12:20:09;28.60;51.50
35445;DHT22;21562;49.476;6.086;2023-06-14T12:25:35;28.80;51.20
35445;DHT22;21562;49.476;6.086;2023-06-14T12:28:07;29.00;50.80
35445;DHT22;21562;49.476;6.086;2023-06-14T12:30:34;29.10;51.10
35445;DHT22;21562;49.476;6.086;2023-06-14T12:33:02;29.20;51.10
35445;DHT22;21562;49.476;6.086;2023-06-14T12:35:27;29.20;51.10
35445;DHT22;21562;49.476;6.086;2023-06-14T12:37:53;29.10;51.10
35445;DHT22;21562;49.476;6.086;2023-06-14T12:40:18;29.00;51.10
35445;DHT22;21562;49.476;6.086;2023-06-14T12:42:45;28.90;51.20
35445;DHT22;21562;49.476;6.086;2023-06-14T12:45:12;28.90;50.90
35445;DHT22;21562;49.476;6.086;2023-06-14T12:47:38;29.20;50.60
35445;DHT22;21562;49.476;6.086;2023-06-14T12:50:05;28.90;50.70
35445;DHT22;21562;49.476;6.086;2023-06-14T12:52:31;29.10;50.70
35445;DHT22;21562;49.476;6.086;2023-06-14T12:54:56;29.40;51.30
35445;DHT22;21562;49.476;6.086;2023-06-14T12:57:23;29.50;50.90
35445;DHT22;21562;49.476;6.086;2023-06-14T12:59:49;29.50;51.30
35445;DHT22;21562;49.476;6.086;2023-06-14T13:02:16;29.20;51.70
35445;DHT22;21562;49.476;6.086;2023-06-14T13:04:43;29.30;51.20
35445;DHT22;21562;49.476;6.086;2023-06-14T13:07:09;29.10;51.10
35445;DHT22;21562;49.476;6.086;2023-06-14T13:09:36;29.20;52.10
35445;DHT22;21562;49.476;6.086;2023-06-14T13:12:02;28.50;51.60
35445;DHT22;21562;49.476;6.086;2023-06-14T13:14:28;28.70;52.80
35445;DHT22;21562;49.476;6.086;2023-06-14T13:16:53;29.00;52.50
35445;DHT22;21562;49.476;6.086;2023-06-14T13:19:20;29.30;53.00
35445;DHT22;21562;49.476;6.086;2023-06-14T13:21:46;29.50;52.30
35445;DHT22;21562;49.476;6.086;2023-06-14T13:24:11;29.50;52.50
35445;DHT22;21562;49.476;6.086;2023-06-14T13:26:37;29.30;52.00
35445;DHT22;21562;49.476;6.086;2023-06-14T13:29:03;29.30;52.20
35445;DHT22;21562;49.476;6.086;2023-06-14T13:31:29;29.00;52.40
35445;DHT22;21562;49.476;6.086;2023-06-14T13:33:55;29.30;51.80
35445;DHT22;21562;49.476;6.086;2023-06-14T13:36:21;29.30;52.00
35445;DHT22;21562;49.476;6.086;2023-06-14T13:38:46;29.30;52.00
35445;DHT22;21562;49.476;6.086;2023-06-14T13:41:12;29.50;51.90
35445;DHT22;21562;49.476;6.086;2023-06-14T13:43:37;28.70;51.50
35445;DHT22;21562;49.476;6.086;2023-06-14T13:46:03;28.60;51.30
35445;DHT22;21562;49.476;6.086;2023-06-14T13:48:29;28.50;51.60
35445;DHT22;21562;49.476;6.086;2023-06-14T13:50:54;28.70;52.30
35445;DHT22;21562;49.476;6.086;2023-06-14T13:53:20;29.00;51.90
35445;DHT22;21562;49.476;6.086;2023-06-14T13:55:46;29.30;51.40
35445;DHT22;21562;49.476;6.086;2023-06-14T13:58:11;29.50;50.80
35445;DHT22;21562;49.476;6.086;2023-06-14T14:00:37;29.60;50.90
35445;DHT22;21562;49.476;6.086;2023-06-14T14:03:06;29.70;51.10
35445;DHT22;21562;49.476;6.086;2023-06-14T14:05:32;29.70;50.60
35445;DHT22;21562;49.476;6.086;2023-06-14T14:07:58;29.60;50.80
35445;DHT22;21562;49.476;6.086;2023-06-14T14:10:24;29.40;51.00
35445;DHT22;21562;49.476;6.086;2023-06-14T14:12:50;29.60;50.80
35445;DHT22;21562;49.476;6.086;2023-06-14T14:15:17;29.70;50.70
35445;DHT22;21562;49.476;6.086;2023-06-14T14:17:42;30.00;50.90
35445;DHT22;21562;49.476;6.086;2023-06-14T14:20:08;30.00;50.60
35445;DHT22;21562;49.476;6.086;2023-06-14T14:22:34;29.90;50.70
35445;DHT22;21562;49.476;6.086;2023-06-14T14:25:00;30.10;50.60
35445;DHT22;21562;49.476;6.086;2023-06-14T14:27:25;29.80;50.00
35445;DHT22;21562;49.476;6.086;2023-06-14T14:29:51;29.90;49.80
35445;DHT22;21562;49.476;6.086;2023-06-14T14:32:17;30.00;50.10
35445;DHT22;21562;49.476;6.086;2023-06-14T14:34:42;30.10;49.70
35445;DHT22;21562;49.476;6.086;2023-06-14T14:37:08;29.10;49.60
35445;DHT22;21562;49.476;6.086;2023-06-14T14:39:34;29.00;50.80
35445;DHT22;21562;49.476;6.086;2023-06-14T14:42:00;29.40;50.90
35445;DHT22;21562;49.476;6.086;2023-06-14T14:44:25;29.50;50.10
35445;DHT22;21562;49.476;6.086;2023-06-14T14:46:51;29.50;50.60
35445;DHT22;21562;49.476;6.086;2023-06-14T14:49:16;29.70;50.30
35445;DHT22;21562;49.476;6.086;2023-06-14T14:51:42;30.00;49.90
35445;DHT22;21562;49.476;6.086;2023-06-14T14:54:08;30.00;50.00
35445;DHT22;21562;49.476;6.086;2023-06-14T14:56:33;30.10;49.60
35445;DHT22;21562;49.476;6.086;2023-06-14T14:59:00;29.90;50.40
35445;DHT22;21562;49.476;6.086;2023-06-14T15:01:26;29.90;50.20
35445;DHT22;21562;49.476;6.086;2023-06-14T15:03:52;29.90;49.70
35445;DHT22;21562;49.476;6.086;2023-06-14T15:06:17;30.10;49.90
35445;DHT22;21562;49.476;6.086;2023-06-14T15:08:43;29.60;49.40
35445;DHT22;21562;49.476;6.086;2023-06-14T15:11:09;29.60;49.50
35445;DHT22;21562;49.476;6.086;2023-06-14T15:13:34;29.80;49.40
35445;DHT22;21562;49.476;6.086;2023-06-14T15:16:01;30.00;49.50
35445;DHT22;21562;49.476;6.086;2023-06-14T15:18:26;30.00;49.80
35445;DHT22;21562;49.476;6.086;2023-06-14T15:20:52;30.10;50.00
35445;DHT22;21562;49.476;6.086;2023-06-14T15:23:17;29.90;49.70
35445;DHT22;21562;49.476;6.086;2023-06-14T15:25:46;30.00;50.10
35445;DHT22;21562;49.476;6.086;2023-06-14T15:28:14;30.00;49.60
35445;DHT22;21562;49.476;6.086;2023-06-14T15:30:40;29.80;49.60
35445;DHT22;21562;49.476;6.086;2023-06-14T15:33:06;30.00;49.50
35445;DHT22;21562;49.476;6.086;2023-06-14T15:35:32;29.70;49.50
35445;DHT22;21562;49.476;6.086;2023-06-14T15:37:57;29.80;49.50
35445;DHT22;21562;49.476;6.086;2023-06-14T15:40:23;29.70;49.10
35445;DHT22;21562;49.476;6.086;2023-06-14T15:42:49;29.50;49.70
35445;DHT22;21562;49.476;6.086;2023-06-14T15:45:14;29.40;49.30
35445;DHT22;21562;49.476;6.086;2023-06-14T15:47:41;29.50;50.00
35445;DHT22;21562;49.476;6.086;2023-06-14T15:50:07;29.80;49.40
35445;DHT22;21562;49.476;6.086;2023-06-14T15:52:33;29.80;49.90
35445;DHT22;21562;49.476;6.086;2023-06-14T15:54:59;30.00;50.10
35445;DHT22;21562;49.476;6.086;2023-06-14T15:57:25;30.10;49.10
35445;DHT22;21562;49.476;6.086;2023-06-14T15:59:51;30.10;49.50
35445;DHT22;21562;49.476;6.086;2023-06-14T16:02:17;30.30;49.60
35445;DHT22;21562;49.476;6.086;2023-06-14T16:04:42;30.10;48.80